createdAt,value
2019-03-30T00:00:39.384Z,4.60
2019-03-30T00:03:09.811Z,5.00
2019-03-30T00:05:41.158Z,4.33
2019-03-30T00:08:11.665Z,3.80
2019-03-30T00:10:42.310Z,4.40
2019-03-30T00:13:12.745Z,4.00
2019-03-30T00:15:43.343Z,4.30
2019-03-30T00:18:13.775Z,3.67
2019-03-30T00:20:44.952Z,4.10
2019-03-30T00:23:15.442Z,4.17
2019-03-30T00:25:46.305Z,4.10
2019-03-30T00:28:16.722Z,4.10
2019-03-30T00:30:47.657Z,3.47
2019-03-30T00:33:18.129Z,3.20
2019-03-30T00:35:49.255Z,4.10
2019-03-30T00:38:19.726Z,4.40
2019-03-30T00:40:50.526Z,4.33
2019-03-30T00:43:20.956Z,4.23
2019-03-30T00:45:51.698Z,4.13
2019-03-30T00:48:22.180Z,4.43
2019-03-30T00:50:53.051Z,4.83
2019-03-30T00:53:23.554Z,5.17
2019-03-30T00:55:54.108Z,4.50
2019-03-30T00:58:25.788Z,4.77
2019-03-30T01:00:56.901Z,4.70
2019-03-30T01:03:27.399Z,5.03
2019-03-30T01:05:58.487Z,4.63
2019-03-30T01:08:29.025Z,4.43
2019-03-30T01:10:59.854Z,4.17
2019-03-30T01:13:30.370Z,4.70
2019-03-30T01:16:01.412Z,4.83
2019-03-30T01:18:32.014Z,4.20
2019-03-30T01:21:03.218Z,4.97
2019-03-30T01:23:33.707Z,4.60
2019-03-30T01:26:04.590Z,4.83
2019-03-30T01:28:35.024Z,4.77
2019-03-30T01:31:05.926Z,4.83
2019-03-30T01:33:36.384Z,4.73
2019-03-30T01:36:07.503Z,4.47
2019-03-30T01:38:38.049Z,4.97
2019-03-30T01:41:08.705Z,4.13
2019-03-30T01:43:39.417Z,4.67
2019-03-30T01:46:10.452Z,4.13
2019-03-30T01:48:40.909Z,4.50
2019-03-30T01:51:12.108Z,5.53
2019-03-30T01:53:42.579Z,3.83
2019-03-30T01:56:13.297Z,4.23
2019-03-30T01:58:43.730Z,5.43
2019-03-30T02:01:14.759Z,4.63
2019-03-30T02:03:45.311Z,5.57
2019-03-30T02:06:16.122Z,5.00
2019-03-30T02:08:46.615Z,5.20
2019-03-30T02:11:17.398Z,5.20
2019-03-30T02:13:47.852Z,4.90
2019-03-30T02:16:18.736Z,5.57
2019-03-30T02:18:49.384Z,5.70
2019-03-30T02:21:20.323Z,5.07
2019-03-30T02:23:50.799Z,4.57
2019-03-30T02:26:21.693Z,4.80
2019-03-30T02:28:52.104Z,5.87
2019-03-30T02:31:22.970Z,5.13
2019-03-30T02:33:53.451Z,4.80
2019-03-30T02:36:24.513Z,5.57
2019-03-30T02:38:55.001Z,4.93
2019-03-30T02:41:25.789Z,4.80
2019-03-30T02:43:56.227Z,4.93
2019-03-30T02:46:27.061Z,6.27
2019-03-30T02:48:57.519Z,4.83
2019-03-30T02:51:28.830Z,4.83
2019-03-30T02:53:59.281Z,4.60
2019-03-30T02:56:30.123Z,5.53
2019-03-30T02:59:00.628Z,6.07
2019-03-30T03:01:31.473Z,5.30
2019-03-30T03:04:01.908Z,5.30
2019-03-30T03:06:33.153Z,4.97
2019-03-30T03:09:05.241Z,4.37
2019-03-30T03:11:35.776Z,5.07
2019-03-30T03:14:06.297Z,4.70
2019-03-30T03:16:36.993Z,5.07
2019-03-30T03:19:07.443Z,4.50
2019-03-30T03:21:38.680Z,5.97
2019-03-30T03:24:09.180Z,4.57
2019-03-30T03:26:39.936Z,5.40
2019-03-30T03:29:10.379Z,5.00
2019-03-30T03:31:41.200Z,4.80
2019-03-30T03:34:11.627Z,4.70
2019-03-30T03:36:42.765Z,4.40
2019-03-30T03:39:13.259Z,5.10
2019-03-30T03:41:44.054Z,5.13
2019-03-30T03:44:14.473Z,4.80
2019-03-30T03:46:45.304Z,4.30
2019-03-30T03:49:15.766Z,4.63
2019-03-30T03:51:47.080Z,5.20
2019-03-30T03:54:18.025Z,4.73
2019-03-30T03:56:49.381Z,4.97
2019-03-30T03:59:20.654Z,4.97
2019-03-30T04:01:53.084Z,4.53
2019-03-30T04:04:26.000Z,5.03
2019-03-30T04:07:00.773Z,4.13
2019-03-30T04:09:33.441Z,5.50
2019-03-30T04:12:07.514Z,5.07
2019-03-30T04:14:40.945Z,4.87
2019-03-30T04:17:12.243Z,5.33
2019-03-30T04:19:42.664Z,5.27
2019-03-30T04:22:13.511Z,4.23
2019-03-30T04:24:44.156Z,4.90
2019-03-30T04:27:14.736Z,4.73
2019-03-30T04:29:45.174Z,5.07
2019-03-30T04:32:16.036Z,5.47
2019-03-30T04:34:46.498Z,5.20
2019-03-30T04:37:17.605Z,5.20
2019-03-30T04:39:48.071Z,5.93
2019-03-30T04:42:18.888Z,5.00
2019-03-30T04:44:49.364Z,5.23
2019-03-30T04:47:20.249Z,4.33
2019-03-30T04:49:50.703Z,5.10
2019-03-30T04:52:21.700Z,4.90
2019-03-30T04:54:52.153Z,5.10
2019-03-30T04:57:22.772Z,5.33
2019-03-30T04:59:53.249Z,5.60
2019-03-30T05:02:24.138Z,4.93
2019-03-30T05:04:54.581Z,4.73
2019-03-30T05:07:25.596Z,4.30
2019-03-30T05:09:56.139Z,5.23
2019-03-30T05:12:27.021Z,4.87
2019-03-30T05:14:57.477Z,4.97
2019-03-30T05:17:45.899Z,5.03
2019-03-30T05:20:00.528Z,5.43
2019-03-30T05:22:31.662Z,4.97
2019-03-30T05:25:02.135Z,5.00
2019-03-30T05:27:32.917Z,4.13
2019-03-30T05:30:03.449Z,5.20
2019-03-30T05:32:34.181Z,5.80
2019-03-30T05:35:05.156Z,4.37
2019-03-30T05:37:36.384Z,4.43
2019-03-30T05:40:08.165Z,4.80
2019-03-30T05:42:38.712Z,4.77
2019-03-30T05:45:09.402Z,4.33
2019-03-30T05:47:40.144Z,4.20
2019-03-30T05:50:10.713Z,4.73
2019-03-30T05:52:41.861Z,4.73
2019-03-30T05:55:12.380Z,4.83
2019-03-30T05:57:43.072Z,5.00
2019-03-30T06:00:15.897Z,4.27
2019-03-30T06:02:46.687Z,4.30
2019-03-30T06:05:17.131Z,4.00
2019-03-30T06:07:47.871Z,4.40
2019-03-30T06:10:18.303Z,4.10
2019-03-30T06:12:49.014Z,5.23
2019-03-30T06:15:19.499Z,3.87
2019-03-30T06:17:50.175Z,4.17
2019-03-30T06:20:20.600Z,4.50
2019-03-30T06:22:51.215Z,5.07
2019-03-30T06:25:21.693Z,4.27
2019-03-30T06:27:52.386Z,4.73
2019-03-30T06:30:24.899Z,4.60
2019-03-30T06:32:55.563Z,4.47
2019-03-30T06:35:26.265Z,4.43
2019-03-30T06:37:57.155Z,3.83
2019-03-30T06:40:27.619Z,4.33
2019-03-30T06:42:58.567Z,4.47
2019-03-30T06:45:29.045Z,4.40
2019-03-30T06:47:59.726Z,3.97
2019-03-30T06:50:30.161Z,3.90
2019-03-30T06:53:01.158Z,4.20
2019-03-30T06:55:31.637Z,4.67
2019-03-30T06:58:02.349Z,4.23
2019-03-30T07:00:37.012Z,3.97
2019-03-30T07:03:09.290Z,4.30
2019-03-30T07:05:44.283Z,4.00
2019-03-30T07:08:16.536Z,4.70
2019-03-30T07:10:48.475Z,4.17
2019-03-30T07:13:19.332Z,4.40
2019-03-30T07:15:54.776Z,3.97
2019-03-30T07:18:25.326Z,4.83
2019-03-30T07:20:55.812Z,3.90
2019-03-30T07:23:26.995Z,3.70
2019-03-30T07:25:57.448Z,3.60
2019-03-30T07:28:28.038Z,3.30
2019-03-30T07:30:58.553Z,3.77
2019-03-30T07:33:28.979Z,3.87
2019-03-30T07:36:00.153Z,3.97
2019-03-30T07:38:30.978Z,4.47
2019-03-30T07:41:01.517Z,4.37
2019-03-30T07:43:32.484Z,4.03
2019-03-30T07:46:03.088Z,3.50
2019-03-30T07:48:33.529Z,3.90
2019-03-30T07:51:03.994Z,3.70
2019-03-30T07:53:44.370Z,3.87
2019-03-30T07:56:08.679Z,3.37
2019-03-30T07:58:39.908Z,3.73
2019-03-30T08:01:10.470Z,4.03
2019-03-30T08:03:41.205Z,4.20
2019-03-30T08:06:11.692Z,4.40
2019-03-30T08:08:42.570Z,3.80
2019-03-30T08:11:14.533Z,4.03
2019-03-30T08:13:45.518Z,4.20
2019-03-30T08:16:15.948Z,4.53
2019-03-30T08:18:46.512Z,4.20
2019-03-30T08:21:17.099Z,4.80
2019-03-30T08:23:48.123Z,3.30
2019-03-30T08:26:18.573Z,3.17
2019-03-30T08:28:49.374Z,3.70
2019-03-30T08:31:19.812Z,3.27
2019-03-30T08:33:50.406Z,3.47
2019-03-30T08:36:20.900Z,4.33
2019-03-30T08:38:51.935Z,3.80
2019-03-30T08:41:22.391Z,3.27
2019-03-30T08:43:53.081Z,3.70
2019-03-30T08:46:23.544Z,3.50
2019-03-30T08:48:54.009Z,3.83
2019-03-30T08:51:24.970Z,3.40
2019-03-30T08:53:55.761Z,3.87
2019-03-30T08:56:27.966Z,3.20
2019-03-30T08:58:58.540Z,3.90
2019-03-30T09:01:29.246Z,3.47
2019-03-30T09:03:59.711Z,3.27
2019-03-30T09:06:30.325Z,3.60
2019-03-30T09:09:01.233Z,3.43
2019-03-30T09:11:31.864Z,3.80
2019-03-30T09:14:02.354Z,3.97
2019-03-30T09:16:33.130Z,3.10
2019-03-30T09:19:03.579Z,3.13
2019-03-30T09:21:34.185Z,3.40
2019-03-30T09:24:09.850Z,3.70
2019-03-30T09:26:37.415Z,3.70
2019-03-30T09:29:07.848Z,3.17
2019-03-30T09:31:38.562Z,3.50
2019-03-30T09:34:09.101Z,4.03
2019-03-30T09:36:39.709Z,4.03
2019-03-30T09:39:11.399Z,3.20
2019-03-30T09:41:42.111Z,4.20
2019-03-30T09:44:12.582Z,3.63
2019-03-30T09:46:43.030Z,2.83
2019-03-30T09:49:13.911Z,3.10
2019-03-30T09:51:44.365Z,3.23
2019-03-30T09:54:23.648Z,3.73
2019-03-30T09:56:47.524Z,3.50
2019-03-30T09:59:18.046Z,4.03
2019-03-30T10:01:48.580Z,3.17
2019-03-30T10:04:19.310Z,3.23
2019-03-30T10:06:49.841Z,3.50
2019-03-30T10:09:20.911Z,2.80
2019-03-30T10:11:51.521Z,3.50
2019-03-30T10:14:22.172Z,3.83
2019-03-30T10:16:52.683Z,3.17
2019-03-30T10:19:23.308Z,3.20
2019-03-30T10:21:53.766Z,4.40
2019-03-30T10:24:37.421Z,3.10
2019-03-30T10:26:56.807Z,2.97
2019-03-30T10:29:27.344Z,2.93
2019-03-30T10:31:59.865Z,3.00
2019-03-30T10:34:30.115Z,3.43
2019-03-30T10:37:00.536Z,3.00
2019-03-30T10:39:31.690Z,3.20
2019-03-30T10:42:02.307Z,3.17
2019-03-30T10:44:33.147Z,3.10
2019-03-30T10:47:03.584Z,3.10
2019-03-30T10:49:34.254Z,3.40
2019-03-30T10:52:04.667Z,3.20
2019-03-30T10:54:35.500Z,3.00
2019-03-30T10:57:06.028Z,3.07
2019-03-30T10:59:36.736Z,3.20
2019-03-30T11:02:07.140Z,2.90
2019-03-30T11:04:37.931Z,2.93
2019-03-30T11:07:08.368Z,2.60
2019-03-30T11:09:39.323Z,2.90
2019-03-30T11:12:09.801Z,2.90
2019-03-30T11:14:40.341Z,2.90
2019-03-30T11:17:10.770Z,3.23
2019-03-30T11:19:41.344Z,2.80
2019-03-30T11:22:11.803Z,2.80
2019-03-30T11:24:42.729Z,2.60
2019-03-30T11:27:13.210Z,2.73
2019-03-30T11:29:43.804Z,3.07
2019-03-30T11:32:14.254Z,3.20
2019-03-30T11:34:45.065Z,3.17
2019-03-30T11:37:15.504Z,2.70
2019-03-30T11:39:46.502Z,2.87
2019-03-30T11:42:17.029Z,3.27
2019-03-30T11:44:47.710Z,2.90
2019-03-30T11:47:18.183Z,2.70
2019-03-30T11:49:49.071Z,2.63
2019-03-30T11:52:19.493Z,2.50
2019-03-30T11:54:50.499Z,3.20
2019-03-30T11:57:21.026Z,2.93
2019-03-30T11:59:51.707Z,2.67
2019-03-30T12:02:28.243Z,2.77
2019-03-30T12:04:54.379Z,3.10
2019-03-30T12:07:24.800Z,3.00
2019-03-30T12:09:55.694Z,3.37
2019-03-30T12:12:26.221Z,3.30
2019-03-30T12:14:57.106Z,3.90
2019-03-30T12:17:27.591Z,2.60
2019-03-30T12:19:58.213Z,2.53
2019-03-30T12:22:28.695Z,3.00
2019-03-30T12:24:59.778Z,2.70
2019-03-30T12:27:30.255Z,3.70
2019-03-30T12:30:01.024Z,3.20
2019-03-30T12:32:31.522Z,3.37
2019-03-30T12:35:02.521Z,3.07
2019-03-30T12:37:32.997Z,2.97
2019-03-30T12:40:04.856Z,3.20
2019-03-30T12:42:35.420Z,2.70
2019-03-30T12:45:06.547Z,3.67
2019-03-30T12:47:37.087Z,3.20
2019-03-30T12:50:08.497Z,3.60
2019-03-30T12:52:38.997Z,3.87
2019-03-30T12:55:10.094Z,3.77
2019-03-30T12:57:40.581Z,3.43
2019-03-30T13:00:11.565Z,4.07
2019-03-30T13:02:42.030Z,4.43
2019-03-30T13:05:12.618Z,3.10
2019-03-30T13:07:43.053Z,4.17
2019-03-30T13:10:14.842Z,4.20
2019-03-30T13:12:45.320Z,3.50
2019-03-30T13:15:16.073Z,3.87
2019-03-30T13:17:46.518Z,4.83
2019-03-30T13:20:19.207Z,5.43
2019-03-30T13:22:49.656Z,5.10
2019-03-30T13:25:20.764Z,4.37
2019-03-30T13:27:53.400Z,5.20
2019-03-30T13:30:23.565Z,5.93
2019-03-30T13:32:54.130Z,3.93
2019-03-30T13:35:24.733Z,4.13
2019-03-30T13:37:55.294Z,4.30
2019-03-30T13:40:26.418Z,4.83
2019-03-30T13:42:56.923Z,5.30
2019-03-30T13:45:27.586Z,5.60
2019-03-30T13:47:58.034Z,5.30
2019-03-30T13:50:30.997Z,6.70
2019-03-30T13:53:00.961Z,5.83
2019-03-30T13:55:32.048Z,5.03
2019-03-30T13:58:02.527Z,5.87
2019-03-30T14:00:33.100Z,6.83
2019-03-30T14:03:03.635Z,6.33
2019-03-30T14:05:34.239Z,6.70
2019-03-30T14:08:04.767Z,6.50
2019-03-30T14:10:38.879Z,8.17
2019-03-30T14:13:07.843Z,7.87
2019-03-30T14:15:38.388Z,7.60
2019-03-30T14:18:08.864Z,7.13
2019-03-30T14:20:39.618Z,8.63
2019-03-30T14:23:10.016Z,8.07
2019-03-30T14:25:40.933Z,8.10
2019-03-30T14:28:11.433Z,8.13
2019-03-30T14:30:42.143Z,8.53
2019-03-30T14:33:14.006Z,8.00
2019-03-30T14:35:44.950Z,8.53
2019-03-30T14:38:15.511Z,10.00
2019-03-30T14:40:46.606Z,11.53
2019-03-30T14:43:17.047Z,9.73
2019-03-30T14:45:47.791Z,12.17
2019-03-30T14:48:18.256Z,11.70
2019-03-30T14:50:48.958Z,10.03
2019-03-30T14:53:19.533Z,12.17
2019-03-30T14:55:50.483Z,9.90
2019-03-30T14:58:20.951Z,9.10
2019-03-30T15:00:51.670Z,11.30
2019-03-30T15:03:22.189Z,10.23
2019-03-30T15:05:52.701Z,10.67
2019-03-30T15:08:23.161Z,10.30
2019-03-30T15:10:54.306Z,11.73
2019-03-30T15:13:24.776Z,12.10
2019-03-30T15:15:55.660Z,11.07
2019-03-30T15:18:26.143Z,12.90
2019-03-30T15:20:56.855Z,12.53
2019-03-30T15:23:27.349Z,10.83
2019-03-30T15:25:58.415Z,11.07
2019-03-30T15:28:28.868Z,12.00
2019-03-30T15:30:59.991Z,12.50
2019-03-30T15:33:30.479Z,12.80
2019-03-30T15:36:01.072Z,11.50
2019-03-30T15:38:31.590Z,13.00
2019-03-30T15:41:02.814Z,13.27
2019-03-30T15:43:38.626Z,13.27
2019-03-30T15:46:05.718Z,14.27
2019-03-30T15:48:36.211Z,15.53
2019-03-30T15:51:06.935Z,17.20
2019-03-30T15:53:37.474Z,14.47
2019-03-30T15:56:08.572Z,19.13
2019-03-30T15:58:39.165Z,17.23
2019-03-30T16:01:10.121Z,20.53
2019-03-30T16:03:40.718Z,23.17
2019-03-30T16:06:11.807Z,21.03
2019-03-30T16:08:42.391Z,21.57
2019-03-30T16:11:13.783Z,21.43
2019-03-30T16:13:44.261Z,24.57
2019-03-30T16:16:14.795Z,22.87
2019-03-30T16:18:45.277Z,21.00
2019-03-30T16:21:15.988Z,24.83
2019-03-30T16:23:46.562Z,22.40
2019-03-30T16:26:17.993Z,23.07
2019-03-30T16:28:48.443Z,19.40
2019-03-30T16:31:19.168Z,18.83
2019-03-30T16:33:49.648Z,17.27
2019-03-30T16:36:20.303Z,20.60
2019-03-30T16:38:50.699Z,19.83
2019-03-30T16:41:21.370Z,19.73
2019-03-30T16:43:51.858Z,18.30
2019-03-30T16:46:22.540Z,18.23
2019-03-30T16:48:53.085Z,18.00
2019-03-30T16:51:23.803Z,18.17
2019-03-30T16:53:54.229Z,15.63
2019-03-30T16:56:25.478Z,15.23
2019-03-30T16:58:55.921Z,13.47
2019-03-30T17:01:26.628Z,10.97
2019-03-30T17:03:57.134Z,8.27
2019-03-30T17:06:28.017Z,7.17
2019-03-30T17:08:58.576Z,6.63
2019-03-30T17:11:29.678Z,7.27
2019-03-30T17:14:00.285Z,6.50
2019-03-30T17:16:30.842Z,6.33
2019-03-30T17:19:01.426Z,5.87
2019-03-30T17:21:32.344Z,6.30
2019-03-30T17:24:02.799Z,5.17
2019-03-30T17:26:34.186Z,4.20
2019-03-30T17:29:04.725Z,4.77
2019-03-30T17:31:35.441Z,4.50
2019-03-30T17:34:06.060Z,4.47
2019-03-30T17:36:36.619Z,4.60
2019-03-30T17:39:10.622Z,5.50
2019-03-30T17:41:41.579Z,5.50
2019-03-30T17:44:12.016Z,6.10
2019-03-30T17:46:42.681Z,6.27
2019-03-30T17:49:13.257Z,5.73
2019-03-30T17:51:44.099Z,5.17
2019-03-30T17:54:14.626Z,5.80
2019-03-30T17:56:45.791Z,6.00
2019-03-30T17:59:16.336Z,6.73
2019-03-30T18:01:47.128Z,6.40
2019-03-30T18:04:17.714Z,7.63
2019-03-30T18:06:48.286Z,6.90
2019-03-30T18:09:18.770Z,6.87
2019-03-30T18:11:50.075Z,6.33
2019-03-30T18:14:20.553Z,7.47
2019-03-30T18:16:51.338Z,6.87
2019-03-30T18:19:21.872Z,7.60
2019-03-30T18:21:52.721Z,6.53
2019-03-30T18:24:23.205Z,6.27
2019-03-30T18:26:54.291Z,7.30
2019-03-30T18:29:24.766Z,8.70
2019-03-30T18:31:55.745Z,9.10
2019-03-30T18:34:26.948Z,8.63
2019-03-30T18:36:57.720Z,10.17
2019-03-30T18:39:28.166Z,13.93
2019-03-30T18:41:59.216Z,14.67
2019-03-30T18:44:29.814Z,14.37
2019-03-30T18:47:00.659Z,13.60
2019-03-30T18:49:31.114Z,12.43
2019-03-30T18:52:02.324Z,12.57
2019-03-30T18:54:33.200Z,10.27
2019-03-30T18:57:04.257Z,10.90
2019-03-30T18:59:34.848Z,10.40
2019-03-30T19:02:05.685Z,10.20
2019-03-30T19:04:36.177Z,9.40
2019-03-30T19:07:06.851Z,9.70
2019-03-30T19:09:37.349Z,11.50
2019-03-30T19:12:08.540Z,10.30
2019-03-30T19:14:38.995Z,9.87
2019-03-30T19:17:09.793Z,9.70
2019-03-30T19:19:40.240Z,9.47
2019-03-30T19:22:11.156Z,10.83
2019-03-30T19:24:41.623Z,10.90
2019-03-30T19:27:12.852Z,9.17
2019-03-30T19:29:43.322Z,10.80
2019-03-30T19:32:14.218Z,9.87
2019-03-30T19:34:44.659Z,9.33
2019-03-30T19:37:15.357Z,10.17
2019-03-30T19:39:45.839Z,8.77
2019-03-30T19:42:17.043Z,9.20
2019-03-30T19:44:47.559Z,8.77
2019-03-30T19:47:18.199Z,8.57
2019-03-30T19:49:48.656Z,8.90
2019-03-30T19:52:19.458Z,7.93
2019-03-30T19:54:49.999Z,6.90
2019-03-30T19:57:21.159Z,7.87
2019-03-30T19:59:51.697Z,7.40
2019-03-30T20:02:22.919Z,5.93
2019-03-30T20:04:53.332Z,5.97
2019-03-30T20:07:24.079Z,6.20
2019-03-30T20:09:54.548Z,6.53
2019-03-30T20:12:25.569Z,5.73
2019-03-30T20:14:56.293Z,4.97
2019-03-30T20:17:26.915Z,6.00
2019-03-30T20:19:57.385Z,5.93
2019-03-30T20:22:28.333Z,5.50
2019-03-30T20:24:58.797Z,5.37
2019-03-30T20:27:29.531Z,5.33
2019-03-30T20:30:00.098Z,4.73
2019-03-30T20:32:30.825Z,4.70
2019-03-30T20:35:01.313Z,4.20
2019-03-30T20:37:31.900Z,5.50
2019-03-30T20:40:02.318Z,4.47
2019-03-30T20:42:33.761Z,4.40
2019-03-30T20:45:05.278Z,3.97
2019-03-30T20:47:36.147Z,3.53
2019-03-30T20:50:07.814Z,4.30
2019-03-30T20:52:38.643Z,2.93
2019-03-30T20:55:09.554Z,3.17
2019-03-30T20:57:40.445Z,2.90
2019-03-30T21:00:11.964Z,3.07
2019-03-30T21:02:42.806Z,4.20
2019-03-30T21:05:13.556Z,3.43
2019-03-30T21:07:44.408Z,2.83
2019-03-30T21:10:14.924Z,2.70
2019-03-30T21:12:45.945Z,2.30
2019-03-30T21:15:16.568Z,2.43
2019-03-30T21:17:47.418Z,3.23
2019-03-30T21:20:18.079Z,2.13
2019-03-30T21:22:49.310Z,1.90
2019-03-30T21:25:19.735Z,1.70
2019-03-30T21:27:50.751Z,1.60
2019-03-30T21:30:21.476Z,1.77
2019-03-30T21:32:52.125Z,1.63
2019-03-30T21:35:22.568Z,1.40
2019-03-30T21:37:53.517Z,1.30
2019-03-30T21:40:23.968Z,1.40
2019-03-30T21:42:54.642Z,1.50
2019-03-30T21:45:25.163Z,1.50
2019-03-30T21:47:55.883Z,1.20
2019-03-30T21:50:26.636Z,0.80
2019-03-30T21:52:57.483Z,0.90
2019-03-30T21:55:27.911Z,0.90
2019-03-30T21:57:59.092Z,0.87
2019-03-30T22:00:40.510Z,0.70
2019-03-30T22:03:12.170Z,0.90
2019-03-30T22:05:42.677Z,0.87
2019-03-30T22:08:16.947Z,0.87
2019-03-30T22:10:45.586Z,1.03
2019-03-30T22:13:16.904Z,0.70
2019-03-30T22:15:47.398Z,1.00
2019-03-30T22:18:18.251Z,0.60
2019-03-30T22:20:48.659Z,0.60
2019-03-30T22:23:19.526Z,0.50
2019-03-30T22:25:50.016Z,0.80
2019-03-30T22:28:21.190Z,0.67
2019-03-30T22:30:51.650Z,0.87
2019-03-30T22:33:22.457Z,0.53
2019-03-30T22:35:52.891Z,0.70
2019-03-30T22:38:23.635Z,0.53
2019-03-30T22:40:54.115Z,0.40
2019-03-30T22:43:25.053Z,0.60
2019-03-30T22:45:55.625Z,0.50
2019-03-30T22:48:26.244Z,0.63
2019-03-30T22:50:56.840Z,0.50
2019-03-30T22:53:27.611Z,0.60
2019-03-30T22:55:58.077Z,0.60
2019-03-30T22:58:29.190Z,0.50
2019-03-30T23:01:11.884Z,0.50
2019-03-30T23:03:42.643Z,0.33
2019-03-30T23:06:13.076Z,0.43
2019-03-30T23:08:43.707Z,0.40
2019-03-30T23:11:14.123Z,0.37
2019-03-30T23:13:45.071Z,0.33
2019-03-30T23:16:15.707Z,0.30
2019-03-30T23:18:46.250Z,0.30
2019-03-30T23:21:16.679Z,0.50
2019-03-30T23:23:47.618Z,0.80
2019-03-30T23:26:18.045Z,0.40
2019-03-30T23:28:49.249Z,0.40
2019-03-30T23:31:19.738Z,0.50
2019-03-30T23:33:50.444Z,0.50
2019-03-30T23:36:20.883Z,0.40
2019-03-30T23:38:51.821Z,0.40
2019-03-30T23:41:22.338Z,0.23
2019-03-30T23:43:53.374Z,0.70
2019-03-30T23:46:23.825Z,0.53
2019-03-30T23:48:54.434Z,0.50
2019-03-30T23:51:24.932Z,0.40
2019-03-30T23:53:55.925Z,0.47
2019-03-30T23:56:26.863Z,0.63
2019-03-30T23:58:57.985Z,0.60
